Time;durP1;ratioP1;P1;durP2;ratioP2;P2;SDS_P1;SDS_P2;PMS_P1;PMS_P2;Temp;Humidity;BMP_temperature;BMP_pressure;BME280_temperature;BME280_humidity;BME280_pressure;Samples;Min_cycle;Max_cycle;Signal;HPM_P1;HPM_P2
2023/08/06 00:01:08;;;;;;;;;;;23.00;55.20;;;;;;8376183;28;19917;-75
2023/08/06 00:05:11;;;;;;;;;;;23.00;55.30;;;;;;8392769;28;19996;-76
2023/08/06 00:09:13;;;;;;;;;;;23.00;55.50;;;;;;8376263;28;20542;-75
2023/08/06 00:13:15;;;;;;;;;;;23.00;55.60;;;;;;8393677;28;20443;-75
2023/08/06 00:17:17;;;;;;;;;;;23.00;55.90;;;;;;8393806;28;19912;-76
2023/08/06 00:21:18;;;;;;;;;;;23.00;56.00;;;;;;8393862;28;20293;-76
2023/08/06 00:25:19;;;;;;;;;;;23.00;56.20;;;;;;8375836;28;19915;-75
2023/08/06 00:29:21;;;;;;;;;;;23.00;56.30;;;;;;8375943;28;19916;-75
2023/08/06 00:33:23;;;;;;;;;;;23.00;56.30;;;;;;8358517;28;19920;-75
2023/08/06 00:37:24;;;;;;;;;;;23.00;56.40;;;;;;8359581;28;19947;-75
2023/08/06 00:41:25;;;;;;;;;;;23.00;56.60;;;;;;8378716;28;19912;-75
2023/08/06 00:45:27;;;;;;;;;;;23.00;56.60;;;;;;8382519;28;19913;-75
2023/08/06 00:49:29;;;;;;;;;;;22.90;56.70;;;;;;8382178;28;19920;-75
2023/08/06 00:53:30;;;;;;;;;;;22.90;56.70;;;;;;8400133;28;20362;-75
2023/08/06 00:57:30;;;;;;;;;;;23.00;56.90;;;;;;8381226;28;19908;-75
2023/08/06 01:01:31;;;;;;;;;;;22.90;56.90;;;;;;8399521;28;19920;-75
2023/08/06 01:05:32;;;;;;;;;;;22.90;56.90;;;;;;8381389;28;19913;-75
2023/08/06 01:09:42;;;;;;;;;;;22.90;57.00;;;;;;8399381;28;19943;-75
2023/08/06 01:13:47;;;;;;;;;;;22.90;57.00;;;;;;8399417;28;19916;-75
2023/08/06 01:17:47;;;;;;;;;;;22.90;57.10;;;;;;8398915;28;19912;-75
2023/08/06 01:21:48;;;;;;;;;;;22.90;57.10;;;;;;8398932;28;20057;-74
2023/08/06 01:25:51;;;;;;;;;;;22.90;57.20;;;;;;8380024;28;19912;-75
2023/08/06 01:29:59;;;;;;;;;;;22.90;57.20;;;;;;8380681;28;19918;-75
2023/08/06 01:34:01;;;;;;;;;;;22.90;57.30;;;;;;8398748;28;19943;-75
2023/08/06 01:38:02;;;;;;;;;;;22.90;57.40;;;;;;8398580;28;19908;-75
2023/08/06 01:42:03;;;;;;;;;;;22.90;57.50;;;;;;8380742;28;19915;-75
2023/08/06 01:46:03;;;;;;;;;;;22.90;57.50;;;;;;8398903;28;19919;-75
2023/08/06 01:50:04;;;;;;;;;;;22.90;57.40;;;;;;8399047;28;20506;-75
2023/08/06 01:54:05;;;;;;;;;;;22.90;57.50;;;;;;8397691;28;20277;-75
2023/08/06 01:58:05;;;;;;;;;;;22.90;57.50;;;;;;8380714;28;19962;-75
2023/08/06 02:02:06;;;;;;;;;;;22.90;57.60;;;;;;8398196;28;19938;-75
2023/08/06 02:06:06;;;;;;;;;;;22.90;57.60;;;;;;8398099;28;19909;-74
2023/08/06 02:10:07;;;;;;;;;;;22.90;57.60;;;;;;8397059;28;19924;-75
2023/08/06 02:14:08;;;;;;;;;;;22.90;57.70;;;;;;8397586;28;19952;-75
2023/08/06 02:18:08;;;;;;;;;;;22.90;57.60;;;;;;8362177;28;19913;-75
2023/08/06 02:22:09;;;;;;;;;;;22.90;57.70;;;;;;8396782;28;20285;-75
2023/08/06 02:26:09;;;;;;;;;;;22.90;57.70;;;;;;8396565;28;19909;-74
2023/08/06 02:30:10;;;;;;;;;;;22.90;57.70;;;;;;8362557;28;19919;-75
2023/08/06 02:34:10;;;;;;;;;;;22.90;57.70;;;;;;8378758;28;19919;-75
2023/08/06 02:38:11;;;;;;;;;;;22.90;57.80;;;;;;8396920;28;19912;-75
2023/08/06 02:42:12;;;;;;;;;;;22.90;57.80;;;;;;8396501;28;19974;-75
2023/08/06 02:46:12;;;;;;;;;;;22.90;57.80;;;;;;8378436;28;19935;-75
2023/08/06 02:50:13;;;;;;;;;;;22.90;57.80;;;;;;8361628;28;19916;-75
2023/08/06 02:54:13;;;;;;;;;;;22.80;57.80;;;;;;8378652;28;19917;-75
2023/08/06 02:58:14;;;;;;;;;;;22.80;57.90;;;;;;8377504;28;20006;-75
2023/08/06 03:02:15;;;;;;;;;;;22.90;58.00;;;;;;8395798;28;19913;-75
2023/08/06 03:06:15;;;;;;;;;;;22.80;58.00;;;;;;8377662;28;19939;-75
2023/08/06 03:10:16;;;;;;;;;;;22.80;57.90;;;;;;8395143;28;20019;-75
2023/08/06 03:14:16;;;;;;;;;;;22.80;58.00;;;;;;8377195;28;19912;-75
2023/08/06 03:18:17;;;;;;;;;;;22.90;58.00;;;;;;8360444;28;19916;-75
2023/08/06 03:22:17;;;;;;;;;;;22.80;58.00;;;;;;8395415;28;19962;-75
2023/08/06 03:26:18;;;;;;;;;;;22.80;58.00;;;;;;8394514;28;19962;-75
2023/08/06 03:30:19;;;;;;;;;;;22.80;58.00;;;;;;8376873;28;20369;-75
2023/08/06 03:34:19;;;;;;;;;;;22.80;58.00;;;;;;8376945;28;19917;-75
2023/08/06 03:38:20;;;;;;;;;;;22.80;58.00;;;;;;8395042;28;20392;-75
2023/08/06 03:42:20;;;;;;;;;;;22.80;58.00;;;;;;8394454;28;20381;-75
2023/08/06 03:46:21;;;;;;;;;;;22.80;58.00;;;;;;8394510;28;19936;-75
2023/08/06 03:50:21;;;;;;;;;;;22.80;58.00;;;;;;8394086;28;19924;-75
2023/08/06 03:54:22;;;;;;;;;;;22.80;58.10;;;;;;8394005;28;20227;-75
2023/08/06 03:58:22;;;;;;;;;;;22.80;58.60;;;;;;8393665;28;20362;-75
2023/08/06 04:02:23;;;;;;;;;;;22.80;58.10;;;;;;8375977;28;19924;-74
2023/08/06 04:06:23;;;;;;;;;;;22.80;58.30;;;;;;8394319;28;19935;-74
2023/08/06 04:10:24;;;;;;;;;;;22.80;58.20;;;;;;8375443;28;20439;-75
2023/08/06 04:14:26;;;;;;;;;;;22.80;58.30;;;;;;8393914;28;19995;-75
2023/08/06 04:18:26;;;;;;;;;;;22.80;58.20;;;;;;8393445;28;19912;-75
2023/08/06 04:22:27;;;;;;;;;;;22.80;58.20;;;;;;8375871;28;19999;-75
2023/08/06 04:26:27;;;;;;;;;;;22.80;58.20;;;;;;8392973;28;20136;-75
2023/08/06 04:30:28;;;;;;;;;;;22.80;58.30;;;;;;8393702;28;19920;-75
2023/08/06 04:34:28;;;;;;;;;;;22.80;58.40;;;;;;8358813;28;20388;-75
2023/08/06 04:38:29;;;;;;;;;;;22.80;58.30;;;;;;8375597;28;20011;-75
2023/08/06 04:42:29;;;;;;;;;;;22.80;58.30;;;;;;8393229;28;19913;-75
2023/08/06 04:46:30;;;;;;;;;;;22.80;58.30;;;;;;8375263;28;20014;-75
2023/08/06 04:50:30;;;;;;;;;;;22.70;58.30;;;;;;8374975;28;19919;-74
2023/08/06 04:54:31;;;;;;;;;;;22.70;58.30;;;;;;8392638;28;19962;-75
2023/08/06 04:58:32;;;;;;;;;;;22.70;58.30;;;;;;8393287;28;19912;-75
2023/08/06 05:02:34;;;;;;;;;;;22.70;58.30;;;;;;8375012;28;19919;-74
2023/08/06 05:06:34;;;;;;;;;;;22.80;58.50;;;;;;8392650;28;20366;-74
2023/08/06 05:10:35;;;;;;;;;;;22.70;58.40;;;;;;8341554;28;20454;-75
2023/08/06 05:14:36;;;;;;;;;;;22.70;58.30;;;;;;8358540;28;19913;-74
2023/08/06 05:18:37;;;;;;;;;;;22.70;58.40;;;;;;8341809;28;19920;-75
2023/08/06 05:22:38;;;;;;;;;;;22.80;58.40;;;;;;8341502;28;19917;-75
2023/08/06 05:26:38;;;;;;;;;;;22.70;58.50;;;;;;8358726;28;19913;-75
2023/08/06 05:30:39;;;;;;;;;;;22.70;58.50;;;;;;8347757;28;20007;-75
2023/08/06 05:34:41;;;;;;;;;;;22.70;58.50;;;;;;8365385;28;19919;-75
2023/08/06 05:38:42;;;;;;;;;;;22.80;58.60;;;;;;8347383;28;19936;-75
2023/08/06 05:42:42;;;;;;;;;;;22.80;58.50;;;;;;8365659;28;19913;-74
2023/08/06 05:46:43;;;;;;;;;;;22.70;58.50;;;;;;8347195;28;19919;-74
2023/08/06 05:50:43;;;;;;;;;;;22.70;58.50;;;;;;8364832;28;20412;-75
2023/08/06 05:54:44;;;;;;;;;;;22.70;58.50;;;;;;8364443;28;19948;-75
2023/08/06 05:58:46;;;;;;;;;;;22.70;58.50;;;;;;8362539;28;19913;-75
2023/08/06 06:02:46;;;;;;;;;;;22.70;58.50;;;;;;8346860;28;20099;-75
2023/08/06 06:06:47;;;;;;;;;;;22.70;58.50;;;;;;8365446;28;19909;-74
2023/08/06 06:10:48;;;;;;;;;;;22.70;58.50;;;;;;8382586;28;19924;-75
2023/08/06 06:14:48;;;;;;;;;;;22.70;58.60;;;;;;8397603;28;20015;-75
2023/08/06 06:18:49;;;;;;;;;;;22.70;58.60;;;;;;8379736;28;19912;-74
2023/08/06 06:22:49;;;;;;;;;;;22.70;58.60;;;;;;8379368;28;19919;-75
2023/08/06 06:26:50;;;;;;;;;;;22.70;58.60;;;;;;8361939;28;19919;-75
2023/08/06 06:30:51;;;;;;;;;;;22.70;58.60;;;;;;8378686;28;19916;-75
2023/08/06 06:34:51;;;;;;;;;;;22.70;58.60;;;;;;8361891;28;19909;-75
2023/08/06 06:38:52;;;;;;;;;;;22.70;58.70;;;;;;8396375;28;19913;-75
2023/08/06 06:42:53;;;;;;;;;;;22.70;58.60;;;;;;8362086;28;19912;-75
2023/08/06 06:46:53;;;;;;;;;;;22.70;58.70;;;;;;8396315;28;19921;-74
2023/08/06 06:50:54;;;;;;;;;;;22.70;58.70;;;;;;8378270;28;19920;-75
2023/08/06 06:54:54;;;;;;;;;;;22.70;58.70;;;;;;8378113;28;19920;-75
2023/08/06 06:58:55;;;;;;;;;;;22.70;58.70;;;;;;8377983;28;19917;-75
2023/08/06 07:02:55;;;;;;;;;;;22.70;58.70;;;;;;8396035;28;19954;-74
2023/08/06 07:06:56;;;;;;;;;;;22.70;58.70;;;;;;8395702;28;20416;-75
2023/08/06 07:11:00;;;;;;;;;;;22.70;58.70;;;;;;8394679;28;19924;-75
2023/08/06 07:15:01;;;;;;;;;;;22.70;58.70;;;;;;8395814;28;19915;-75
2023/08/06 07:19:02;;;;;;;;;;;22.70;58.70;;;;;;8360779;28;19912;-74
2023/08/06 07:23:02;;;;;;;;;;;22.70;58.70;;;;;;8395571;28;20401;-75
2023/08/06 07:27:03;;;;;;;;;;;22.70;58.70;;;;;;8394607;28;19961;-75
2023/08/06 07:31:03;;;;;;;;;;;22.70;58.70;;;;;;8376871;28;20109;-74
2023/08/06 07:35:04;;;;;;;;;;;22.70;58.80;;;;;;8394328;28;19916;-75
2023/08/06 07:39:06;;;;;;;;;;;22.70;58.70;;;;;;8394757;28;19943;-75
2023/08/06 07:43:06;;;;;;;;;;;22.70;58.80;;;;;;8394567;28;19999;-75
2023/08/06 07:47:07;;;;;;;;;;;22.70;58.70;;;;;;8394681;28;19913;-75
2023/08/06 07:51:07;;;;;;;;;;;22.70;58.80;;;;;;8394517;28;19916;-75
2023/08/06 07:55:08;;;;;;;;;;;22.70;58.80;;;;;;8376040;28;19915;-75
2023/08/06 07:59:09;;;;;;;;;;;22.70;58.80;;;;;;8394160;28;19913;-75
2023/08/06 08:03:09;;;;;;;;;;;22.60;58.70;;;;;;8377730;28;19913;-75
2023/08/06 08:07:10;;;;;;;;;;;22.60;58.80;;;;;;8396813;28;20372;-74
2023/08/06 08:11:11;;;;;;;;;;;22.70;58.80;;;;;;8396607;28;19966;-74
2023/08/06 08:15:11;;;;;;;;;;;22.60;58.80;;;;;;8365717;28;19913;-75
2023/08/06 08:19:12;;;;;;;;;;;22.70;58.80;;;;;;8384443;28;19919;-75
2023/08/06 08:23:12;;;;;;;;;;;22.70;58.80;;;;;;8403464;28;19912;-75
2023/08/06 08:27:14;;;;;;;;;;;22.70;58.80;;;;;;8412827;28;19964;-75
2023/08/06 08:31:15;;;;;;;;;;;22.70;58.90;;;;;;8433877;28;19927;-76
2023/08/06 08:35:16;;;;;;;;;;;22.60;58.80;;;;;;8429854;28;19924;-75
2023/08/06 08:39:16;;;;;;;;;;;22.70;58.90;;;;;;8398148;28;20018;-75
2023/08/06 08:43:17;;;;;;;;;;;22.60;58.80;;;;;;8393170;28;19919;-75
2023/08/06 08:47:18;;;;;;;;;;;22.70;58.90;;;;;;8358661;28;19912;-75
2023/08/06 08:51:19;;;;;;;;;;;22.60;58.80;;;;;;8375595;28;19970;-75
2023/08/06 08:55:21;;;;;;;;;;;22.70;58.90;;;;;;8392504;28;19909;-75
2023/08/06 08:59:21;;;;;;;;;;;22.70;58.90;;;;;;8393149;28;20370;-75
2023/08/06 09:03:22;;;;;;;;;;;22.70;58.90;;;;;;8379290;28;20368;-75
2023/08/06 09:07:23;;;;;;;;;;;22.70;58.90;;;;;;8400537;28;20373;-75
2023/08/06 09:11:24;;;;;;;;;;;22.60;58.90;;;;;;8381186;28;20410;-74
2023/08/06 09:15:25;;;;;;;;;;;22.60;58.90;;;;;;8381459;28;20305;-75
2023/08/06 09:19:26;;;;;;;;;;;22.60;58.90;;;;;;8399123;28;19919;-74
2023/08/06 09:23:29;;;;;;;;;;;22.70;58.90;;;;;;8398801;28;19916;-74
2023/08/06 09:27:30;;;;;;;;;;;22.70;58.90;;;;;;8398360;28;19915;-74
2023/08/06 09:31:39;;;;;;;;;;;22.60;58.90;;;;;;8380128;28;19948;-75
2023/08/06 09:35:40;;;;;;;;;;;22.60;58.90;;;;;;8398304;28;19943;-75
2023/08/06 09:39:41;;;;;;;;;;;22.60;58.90;;;;;;8398350;28;19962;-74
2023/08/06 09:43:42;;;;;;;;;;;22.60;58.90;;;;;;8380384;28;19918;-74
2023/08/06 09:47:43;;;;;;;;;;;22.60;58.90;;;;;;8398009;28;19920;-75
2023/08/06 09:51:44;;;;;;;;;;;22.70;59.00;;;;;;8379985;28;19916;-75
2023/08/06 09:55:45;;;;;;;;;;;22.60;58.90;;;;;;8379743;28;19913;-75
2023/08/06 09:59:47;;;;;;;;;;;22.60;59.00;;;;;;8397668;28;19915;-75
2023/08/06 10:03:49;;;;;;;;;;;22.60;59.00;;;;;;8379728;28;19951;-75
2023/08/06 10:07:53;;;;;;;;;;;22.60;59.00;;;;;;8397553;28;19991;-75
2023/08/06 10:11:54;;;;;;;;;;;22.60;59.00;;;;;;8397301;28;19920;-75
2023/08/06 10:15:55;;;;;;;;;;;22.70;59.00;;;;;;8396700;28;19912;-74
2023/08/06 10:19:56;;;;;;;;;;;22.60;59.00;;;;;;8398102;28;19919;-75
2023/08/06 10:23:56;;;;;;;;;;;22.60;59.00;;;;;;8381001;28;20374;-75
2023/08/06 10:27:57;;;;;;;;;;;22.60;59.00;;;;;;8381103;28;19913;-75
2023/08/06 10:32:01;;;;;;;;;;;22.60;59.00;;;;;;8364073;28;19916;-75
2023/08/06 10:36:04;;;;;;;;;;;22.60;59.00;;;;;;8364651;28;19920;-75
2023/08/06 10:40:07;;;;;;;;;;;22.60;59.00;;;;;;8400037;28;20415;-75
2023/08/06 10:44:08;;;;;;;;;;;22.60;59.00;;;;;;8400275;28;19909;-74
2023/08/06 10:48:08;;;;;;;;;;;22.60;59.00;;;;;;8383840;28;19916;-75
2023/08/06 10:52:09;;;;;;;;;;;22.60;59.00;;;;;;8412018;28;19922;-74
2023/08/06 10:56:27;;;;;;;;;;;22.60;59.00;;;;;;8439402;28;20209;-75
2023/08/06 11:00:28;;;;;;;;;;;22.60;59.00;;;;;;8439187;28;19972;-74
2023/08/06 11:04:30;;;;;;;;;;;22.60;59.00;;;;;;8421584;28;20409;-74
2023/08/06 11:08:34;;;;;;;;;;;22.60;59.00;;;;;;8438876;28;19920;-74
2023/08/06 11:12:35;;;;;;;;;;;22.60;59.00;;;;;;8438272;28;19961;-75
2023/08/06 11:16:36;;;;;;;;;;;22.60;59.00;;;;;;8403247;28;19974;-75
2023/08/06 11:20:37;;;;;;;;;;;22.60;59.10;;;;;;8379141;28;19947;-74
2023/08/06 11:24:38;;;;;;;;;;;22.60;59.10;;;;;;8396333;28;19908;-75
2023/08/06 11:28:38;;;;;;;;;;;22.60;59.10;;;;;;8395650;28;19915;-75
2023/08/06 11:32:46;;;;;;;;;;;22.60;59.10;;;;;;8395382;28;19916;-74
2023/08/06 11:36:47;;;;;;;;;;;22.60;59.10;;;;;;8344521;28;20314;-75
2023/08/06 11:40:48;;;;;;;;;;;22.60;59.10;;;;;;8360643;28;19913;-75
2023/08/06 11:44:48;;;;;;;;;;;22.60;59.10;;;;;;8394702;28;19916;-75
2023/08/06 11:48:52;;;;;;;;;;;22.60;59.10;;;;;;8376976;28;20007;-75
2023/08/06 11:52:57;;;;;;;;;;;22.60;59.10;;;;;;8395246;28;19920;-75
2023/08/06 11:56:58;;;;;;;;;;;22.60;59.10;;;;;;8377434;28;19912;-75
2023/08/06 12:00:58;;;;;;;;;;;22.60;59.00;;;;;;8377638;28;20316;-75
2023/08/06 12:05:04;;;;;;;;;;;22.60;59.00;;;;;;8396255;28;19913;-75
2023/08/06 12:09:05;;;;;;;;;;;22.60;59.00;;;;;;8395503;28;19986;-75
2023/08/06 12:13:05;;;;;;;;;;;22.60;59.10;;;;;;8395261;28;20006;-75
2023/08/06 12:17:06;;;;;;;;;;;22.60;59.10;;;;;;8377040;28;19912;-75
2023/08/06 12:21:06;;;;;;;;;;;22.60;59.10;;;;;;8394073;28;20305;-75
2023/08/06 12:25:08;;;;;;;;;;;22.60;59.10;;;;;;8393353;28;19913;-75
2023/08/06 12:29:08;;;;;;;;;;;22.60;59.10;;;;;;8375605;28;20377;-75
2023/08/06 12:33:09;;;;;;;;;;;22.60;59.10;;;;;;8393498;28;20344;-75
2023/08/06 12:37:10;;;;;;;;;;;22.60;59.10;;;;;;8363359;28;19982;-75
2023/08/06 12:41:10;;;;;;;;;;;22.60;59.10;;;;;;8404299;28;19934;-75
2023/08/06 12:45:11;;;;;;;;;;;22.60;59.10;;;;;;8386024;28;19912;-75
2023/08/06 12:49:11;;;;;;;;;;;22.60;59.20;;;;;;8404056;28;19935;-75
2023/08/06 12:53:12;;;;;;;;;;;22.60;59.20;;;;;;8386346;28;20027;-75
2023/08/06 12:57:13;;;;;;;;;;;22.50;59.10;;;;;;8385758;28;20411;-75
2023/08/06 13:01:13;;;;;;;;;;;22.60;59.20;;;;;;8386579;28;19913;-70
2023/08/06 13:05:14;;;;;;;;;;;22.60;59.20;;;;;;8404159;28;19912;-75
2023/08/06 13:09:15;;;;;;;;;;;22.50;59.70;;;;;;8383885;28;20278;-74
2023/08/06 13:13:16;;;;;;;;;;;22.40;58.80;;;;;;8401114;28;20271;-74
2023/08/06 13:17:16;;;;;;;;;;;22.40;57.70;;;;;;8384813;28;20324;-74
2023/08/06 13:21:17;;;;;;;;;;;22.40;57.60;;;;;;8350392;28;19916;-74
2023/08/06 13:25:17;;;;;;;;;;;22.40;57.30;;;;;;8385689;28;19913;-74
2023/08/06 13:29:18;;;;;;;;;;;22.40;56.30;;;;;;8384923;28;19923;-73
2023/08/06 13:33:18;;;;;;;;;;;22.50;56.70;;;;;;8363880;28;20102;-73
2023/08/06 13:37:21;;;;;;;;;;;22.50;56.50;;;;;;8378764;28;20315;-74
2023/08/06 13:41:21;;;;;;;;;;;22.50;56.10;;;;;;8361221;28;21152;-74
2023/08/06 13:45:22;;;;;;;;;;;22.50;55.90;;;;;;8379107;28;19971;-73
2023/08/06 13:49:22;;;;;;;;;;;22.50;55.80;;;;;;8340362;28;20358;-74
2023/08/06 13:53:25;;;;;;;;;;;22.50;55.20;;;;;;8355640;28;19913;-74
2023/08/06 13:57:25;;;;;;;;;;;22.50;55.00;;;;;;8373777;28;20325;-74
2023/08/06 14:01:26;;;;;;;;;;;22.50;55.20;;;;;;8373097;28;19944;-74
2023/08/06 14:05:27;;;;;;;;;;;22.50;54.80;;;;;;8355463;28;19967;-74
2023/08/06 14:09:27;;;;;;;;;;;22.60;55.10;;;;;;8355426;28;20354;-74
2023/08/06 14:13:28;;;;;;;;;;;22.60;54.80;;;;;;8354516;28;19925;-74
2023/08/06 14:17:29;;;;;;;;;;;22.60;54.50;;;;;;8373483;28;19986;-74
2023/08/06 14:21:29;;;;;;;;;;;22.50;54.50;;;;;;8373383;28;20282;-74
2023/08/06 14:25:30;;;;;;;;;;;22.50;54.20;;;;;;8373162;28;19920;-72
2023/08/06 14:29:30;;;;;;;;;;;22.50;53.90;;;;;;8373070;28;20360;-74
2023/08/06 14:33:31;;;;;;;;;;;22.50;53.50;;;;;;8372966;28;19913;-74
2023/08/06 14:37:31;;;;;;;;;;;22.50;53.40;;;;;;8354481;28;19923;-75
2023/08/06 14:41:32;;;;;;;;;;;22.50;53.30;;;;;;8354865;28;19921;-74
2023/08/06 14:45:33;;;;;;;;;;;22.50;53.30;;;;;;8372528;28;19909;-74
2023/08/06 14:49:33;;;;;;;;;;;22.50;53.10;;;;;;8353974;28;19917;-74
2023/08/06 14:53:34;;;;;;;;;;;22.50;53.70;;;;;;8354133;28;19921;-74
2023/08/06 14:57:34;;;;;;;;;;;22.50;53.30;;;;;;8372070;28;20344;-74
2023/08/06 15:01:35;;;;;;;;;;;22.50;53.20;;;;;;8371045;28;19916;-74
2023/08/06 15:05:35;;;;;;;;;;;22.50;53.00;;;;;;8353976;28;19912;-74
2023/08/06 15:09:36;;;;;;;;;;;22.50;52.60;;;;;;8353494;28;19933;-74
2023/08/06 15:13:36;;;;;;;;;;;22.50;52.30;;;;;;8354042;28;19921;-74
2023/08/06 15:17:37;;;;;;;;;;;22.50;52.30;;;;;;8351306;28;19979;-74
2023/08/06 15:21:37;;;;;;;;;;;22.60;52.60;;;;;;8352917;28;19908;-74
2023/08/06 15:25:38;;;;;;;;;;;22.60;52.60;;;;;;8336502;28;20386;-74
2023/08/06 15:29:38;;;;;;;;;;;22.60;52.60;;;;;;8370564;28;19921;-73
2023/08/06 15:33:39;;;;;;;;;;;22.60;52.50;;;;;;8370542;28;19952;-74
2023/08/06 15:37:39;;;;;;;;;;;22.70;52.90;;;;;;8352716;28;20436;-74
2023/08/06 15:41:40;;;;;;;;;;;22.70;53.10;;;;;;8370013;28;19975;-74
2023/08/06 15:45:40;;;;;;;;;;;22.70;53.10;;;;;;8370591;28;19928;-75
2023/08/06 15:49:41;;;;;;;;;;;22.70;53.40;;;;;;8370179;28;19969;-74
2023/08/06 15:53:41;;;;;;;;;;;22.70;53.50;;;;;;8367202;28;19999;-74
2023/08/06 15:57:43;;;;;;;;;;;22.70;53.60;;;;;;8369975;28;19923;-75
2023/08/06 16:01:44;;;;;;;;;;;22.70;53.80;;;;;;8372531;28;20019;-74
2023/08/06 16:05:44;;;;;;;;;;;22.70;53.80;;;;;;8353941;28;19962;-74
2023/08/06 16:09:45;;;;;;;;;;;22.70;54.00;;;;;;8369864;28;19959;-74
2023/08/06 16:13:45;;;;;;;;;;;22.70;53.90;;;;;;8369012;28;19913;-75
2023/08/06 16:17:46;;;;;;;;;;;22.70;54.00;;;;;;8371380;28;19963;-74
2023/08/06 16:21:47;;;;;;;;;;;22.70;54.20;;;;;;8371279;28;19921;-74
2023/08/06 16:25:47;;;;;;;;;;;22.80;54.30;;;;;;8370823;28;19913;-74
2023/08/06 16:29:48;;;;;;;;;;;22.80;54.30;;;;;;8370839;28;19916;-75
2023/08/06 16:33:49;;;;;;;;;;;22.80;54.40;;;;;;8353140;28;21415;-75
2023/08/06 16:37:49;;;;;;;;;;;22.80;54.40;;;;;;8371493;28;19916;-74
2023/08/06 16:41:50;;;;;;;;;;;22.80;54.50;;;;;;8370838;28;19916;-74
2023/08/06 16:45:54;;;;;;;;;;;22.80;54.60;;;;;;8370659;28;19913;-75
2023/08/06 16:49:54;;;;;;;;;;;22.80;54.70;;;;;;8370922;28;19920;-74
2023/08/06 16:53:55;;;;;;;;;;;22.70;54.80;;;;;;8371359;28;19917;-75
2023/08/06 16:57:56;;;;;;;;;;;22.70;55.00;;;;;;8335862;28;19909;-74
2023/08/06 17:01:56;;;;;;;;;;;22.70;55.00;;;;;;8334596;28;19931;-75
2023/08/06 17:05:58;;;;;;;;;;;22.80;55.00;;;;;;8370447;28;20278;-75
2023/08/06 17:09:58;;;;;;;;;;;22.70;55.00;;;;;;8352206;28;19925;-75
2023/08/06 17:13:59;;;;;;;;;;;22.70;55.20;;;;;;8370672;28;19921;-74
2023/08/06 17:17:59;;;;;;;;;;;22.70;55.20;;;;;;8370320;28;20404;-71
2023/08/06 17:22:00;;;;;;;;;;;22.70;55.10;;;;;;8353011;28;20009;-74
2023/08/06 17:26:01;;;;;;;;;;;22.70;55.50;;;;;;8359980;28;19925;-75
2023/08/06 17:30:02;;;;;;;;;;;22.70;55.40;;;;;;8377722;28;19924;-75
2023/08/06 17:34:02;;;;;;;;;;;22.70;55.30;;;;;;8358960;28;20812;-74
2023/08/06 17:38:03;;;;;;;;;;;22.80;55.60;;;;;;8376341;28;19920;-75
2023/08/06 17:42:04;;;;;;;;;;;22.70;55.80;;;;;;8378973;28;19962;-74
2023/08/06 17:46:04;;;;;;;;;;;22.80;55.50;;;;;;8378656;28;19958;-72
2023/08/06 17:50:05;;;;;;;;;;;22.80;55.60;;;;;;8359870;28;19929;-74
2023/08/06 17:54:06;;;;;;;;;;;22.80;55.80;;;;;;8361127;28;19920;-74
2023/08/06 17:58:07;;;;;;;;;;;22.70;55.90;;;;;;8379894;28;19931;-74
2023/08/06 18:02:07;;;;;;;;;;;22.70;55.90;;;;;;8363025;28;19916;-73
2023/08/06 18:06:08;;;;;;;;;;;22.80;55.90;;;;;;8364691;28;19928;-73
2023/08/06 18:10:08;;;;;;;;;;;22.70;55.80;;;;;;8396428;28;19912;-73
2023/08/06 18:14:09;;;;;;;;;;;22.80;56.00;;;;;;8418265;28;19968;-73
2023/08/06 18:18:10;;;;;;;;;;;22.70;56.00;;;;;;8418888;28;19935;-74
2023/08/06 18:22:10;;;;;;;;;;;22.70;56.10;;;;;;8438913;28;19903;-73
2023/08/06 18:26:11;;;;;;;;;;;22.70;56.30;;;;;;8402863;28;19935;-74
2023/08/06 18:30:11;;;;;;;;;;;22.70;56.20;;;;;;8440006;28;19972;-74
2023/08/06 18:34:12;;;;;;;;;;;22.70;56.20;;;;;;8393511;28;20385;-75
2023/08/06 18:38:12;;;;;;;;;;;22.70;56.40;;;;;;8357274;28;19909;-72
2023/08/06 18:42:13;;;;;;;;;;;22.80;56.30;;;;;;8357956;28;20316;-73
2023/08/06 18:46:14;;;;;;;;;;;22.80;56.40;;;;;;8374848;28;19928;-72
2023/08/06 18:50:14;;;;;;;;;;;22.80;56.30;;;;;;8375093;28;19924;-72
2023/08/06 18:54:15;;;;;;;;;;;22.80;56.50;;;;;;8356089;28;19917;-71
2023/08/06 18:58:16;;;;;;;;;;;22.80;56.50;;;;;;8340039;28;20033;-73
2023/08/06 19:02:16;;;;;;;;;;;22.80;56.50;;;;;;8373458;28;19908;-74
2023/08/06 19:06:17;;;;;;;;;;;22.80;56.70;;;;;;8355891;28;19986;-72
2023/08/06 19:10:17;;;;;;;;;;;22.80;56.80;;;;;;8356043;28;19933;-72
2023/08/06 19:14:18;;;;;;;;;;;22.80;57.00;;;;;;8374913;28;19947;-72
2023/08/06 19:18:18;;;;;;;;;;;22.80;57.10;;;;;;8356738;28;20358;-73
2023/08/06 19:22:19;;;;;;;;;;;22.80;56.90;;;;;;8374648;28;19921;-70
2023/08/06 19:26:19;;;;;;;;;;;22.80;56.90;;;;;;8374845;28;19929;-72
2023/08/06 19:30:20;;;;;;;;;;;22.80;57.00;;;;;;8373657;28;19983;-72
2023/08/06 19:34:20;;;;;;;;;;;22.80;57.20;;;;;;8373022;28;19966;-72
2023/08/06 19:38:22;;;;;;;;;;;22.80;56.90;;;;;;8355326;28;19921;-71
2023/08/06 19:42:23;;;;;;;;;;;22.90;56.90;;;;;;8371343;28;19908;-72
2023/08/06 19:46:23;;;;;;;;;;;22.90;56.70;;;;;;8370566;28;20010;-71
2023/08/06 19:50:24;;;;;;;;;;;22.90;56.80;;;;;;8354889;28;19920;-72
2023/08/06 19:54:24;;;;;;;;;;;22.90;56.90;;;;;;8372293;28;19913;-71
2023/08/06 19:58:29;;;;;;;;;;;23.00;57.10;;;;;;8354284;28;20507;-71
2023/08/06 20:02:30;;;;;;;;;;;23.00;56.90;;;;;;8369642;28;20365;-72
2023/08/06 20:06:30;;;;;;;;;;;22.90;56.90;;;;;;8372262;28;20285;-71
2023/08/06 20:10:31;;;;;;;;;;;23.00;57.10;;;;;;8371968;28;19920;-72
2023/08/06 20:14:31;;;;;;;;;;;22.90;56.90;;;;;;8354355;28;20301;-72
2023/08/06 20:18:32;;;;;;;;;;;22.90;57.00;;;;;;8353979;28;20274;-73
2023/08/06 20:22:32;;;;;;;;;;;22.90;57.30;;;;;;8371966;28;19922;-73
2023/08/06 20:26:33;;;;;;;;;;;22.90;56.90;;;;;;8354260;28;20047;-79
2023/08/06 20:30:34;;;;;;;;;;;23.00;56.90;;;;;;8371714;28;20352;-78
2023/08/06 20:34:34;;;;;;;;;;;23.00;56.90;;;;;;8371608;28;19951;-79
2023/08/06 20:38:35;;;;;;;;;;;23.00;57.00;;;;;;8353769;28;19921;-78
2023/08/06 20:42:36;;;;;;;;;;;23.00;57.20;;;;;;8371804;28;19924;-75
2023/08/06 20:46:36;;;;;;;;;;;22.90;57.10;;;;;;8354013;28;19921;-74
2023/08/06 20:50:40;;;;;;;;;;;22.90;57.20;;;;;;8353522;28;19917;-75
2023/08/06 20:54:41;;;;;;;;;;;22.90;57.50;;;;;;8371689;28;19916;-77
2023/08/06 20:58:42;;;;;;;;;;;22.90;57.30;;;;;;8356193;28;20374;-78
2023/08/06 21:02:42;;;;;;;;;;;22.90;57.50;;;;;;8377051;28;19954;-78
2023/08/06 21:06:43;;;;;;;;;;;22.90;57.50;;;;;;8378856;28;19913;-76
2023/08/06 21:10:43;;;;;;;;;;;23.00;57.80;;;;;;8377218;28;19921;-77
2023/08/06 21:14:44;;;;;;;;;;;23.00;59.00;;;;;;8359376;28;19920;-78
2023/08/06 21:18:44;;;;;;;;;;;23.00;59.60;;;;;;8377286;28;19927;-73
2023/08/06 21:22:45;;;;;;;;;;;23.00;60.10;;;;;;8358019;28;20306;-73
2023/08/06 21:26:45;;;;;;;;;;;23.00;60.40;;;;;;8377107;28;19923;-73
2023/08/06 21:30:52;;;;;;;;;;;23.00;60.00;;;;;;8358986;28;19975;-74
2023/08/06 21:34:53;;;;;;;;;;;23.00;59.80;;;;;;8383308;28;19908;-74
2023/08/06 21:38:54;;;;;;;;;;;23.00;59.60;;;;;;8342426;28;19952;-74
2023/08/06 21:42:54;;;;;;;;;;;23.00;59.40;;;;;;8358634;28;19924;-75
2023/08/06 21:46:55;;;;;;;;;;;23.00;59.50;;;;;;8376424;28;19928;-74
2023/08/06 21:50:59;;;;;;;;;;;23.00;59.30;;;;;;8358835;28;20003;-77
2023/08/06 21:55:00;;;;;;;;;;;23.00;59.20;;;;;;8358328;28;19989;-73
2023/08/06 21:59:00;;;;;;;;;;;23.00;59.40;;;;;;8376590;28;20375;-75
2023/08/06 22:03:01;;;;;;;;;;;23.00;59.30;;;;;;8358686;28;19960;-73
2023/08/06 22:07:01;;;;;;;;;;;23.00;59.40;;;;;;8358236;28;19913;-74
2023/08/06 22:11:02;;;;;;;;;;;23.00;59.20;;;;;;8339758;28;19928;-74
2023/08/06 22:15:03;;;;;;;;;;;23.00;59.10;;;;;;8332178;28;19909;-75
2023/08/06 22:19:04;;;;;;;;;;;23.00;59.30;;;;;;8341521;28;19995;-74
2023/08/06 22:23:04;;;;;;;;;;;23.00;59.30;;;;;;8338335;28;19916;-73
2023/08/06 22:27:05;;;;;;;;;;;22.90;59.10;;;;;;8326311;28;19978;-74
2023/08/06 22:31:05;;;;;;;;;;;23.00;59.00;;;;;;8358719;28;19928;-75
2023/08/06 22:35:06;;;;;;;;;;;22.90;59.00;;;;;;8343713;28;20023;-76
2023/08/06 22:39:07;;;;;;;;;;;22.90;58.90;;;;;;8325696;28;20289;-75
2023/08/06 22:43:07;;;;;;;;;;;23.00;59.20;;;;;;8343279;28;19983;-75
2023/08/06 22:47:08;;;;;;;;;;;23.00;60.60;;;;;;8325446;28;19920;-75
2023/08/06 22:51:08;;;;;;;;;;;23.10;61.10;;;;;;8341464;28;19939;-75
2023/08/06 22:55:09;;;;;;;;;;;23.10;60.70;;;;;;8342629;28;20286;-76
2023/08/06 22:59:10;;;;;;;;;;;23.10;60.20;;;;;;8341348;28;19913;-75
2023/08/06 23:03:10;;;;;;;;;;;23.10;60.00;;;;;;8342649;28;19948;-76
2023/08/06 23:07:11;;;;;;;;;;;23.10;59.80;;;;;;8342416;28;19917;-75
2023/08/06 23:11:11;;;;;;;;;;;23.10;59.60;;;;;;8332253;28;20023;-75
2023/08/06 23:15:12;;;;;;;;;;;23.10;59.60;;;;;;8342274;28;20382;-76
2023/08/06 23:19:12;;;;;;;;;;;23.10;59.40;;;;;;8361290;28;19913;-74